Time;durP1;ratioP1;P1;durP2;ratioP2;P2;SDS_P1;SDS_P2;PMS_P1;PMS_P2;Temp;Humidity;BMP_temperature;BMP_pressure;BME280_temperature;BME280_humidity;BME280_pressure;Samples;Min_cycle;Max_cycle;Signal;HPM_P1;HPM_P2
2023/04/18 00:00:18;;;;;;;18.98;11.77;;;10.70;99.90;;;;;;4947983;29;20123;-79
2023/04/18 00:02:44;;;;;;;17.38;12.40;;;10.70;99.90;;;;;;4948496;29;20075;-79
2023/04/18 00:05:11;;;;;;;18.90;12.88;;;10.70;99.90;;;;;;4948221;29;20027;-79
2023/04/18 00:07:37;;;;;;;18.40;12.35;;;10.70;99.90;;;;;;4947116;29;20071;-79
2023/04/18 00:10:05;;;;;;;16.35;11.95;;;10.70;99.90;;;;;;4947509;29;20020;-79
2023/04/18 00:12:33;;;;;;;15.77;12.63;;;10.70;99.90;;;;;;4929628;29;20032;-79
2023/04/18 00:14:59;;;;;;;16.55;12.23;;;10.70;99.90;;;;;;4946452;29;20043;-79
2023/04/18 00:17:26;;;;;;;15.55;11.43;;;10.70;99.90;;;;;;4930496;29;20538;-79
2023/04/18 00:19:53;;;;;;;15.65;11.23;;;10.70;99.90;;;;;;4947355;29;20024;-79
2023/04/18 00:22:22;;;;;;;17.55;12.10;;;10.60;99.90;;;;;;4947185;29;20027;-79
2023/04/18 00:24:48;;;;;;;;;;;10.60;99.90;;;;;;4931046;29;20035;-79
2023/04/18 00:27:17;;;;;;;15.32;11.98;;;10.60;99.90;;;;;;4930853;29;19910;-79
2023/04/18 00:29:43;;;;;;;16.58;12.25;;;10.60;99.90;;;;;;4947330;29;20052;-79
2023/04/18 00:32:09;;;;;;;17.83;11.52;;;10.60;99.90;;;;;;4947544;29;20035;-79
2023/04/18 00:34:35;;;;;;;16.60;11.77;;;10.60;99.90;;;;;;4947573;29;20419;-79
2023/04/18 00:37:00;;;;;;;17.83;12.30;;;10.60;99.90;;;;;;4946863;29;20032;-79
2023/04/18 00:39:26;;;;;;;17.15;11.88;;;10.60;99.90;;;;;;4947701;29;20024;-79
2023/04/18 00:41:52;;;;;;;14.68;11.32;;;10.60;99.90;;;;;;4947900;29;20031;-79
2023/04/18 00:44:17;;;;;;;15.88;11.73;;;10.60;99.90;;;;;;4946685;29;20110;-79
2023/04/18 00:46:43;;;;;;;17.00;10.70;;;10.60;99.90;;;;;;4929996;29;20067;-80
2023/04/18 00:49:10;;;;;;;16.92;10.48;;;10.60;99.90;;;;;;4946647;29;20054;-79
2023/04/18 00:51:36;;;;;;;16.52;11.38;;;10.60;99.90;;;;;;4929893;29;20071;-79
2023/04/18 00:54:06;;;;;;;16.25;11.13;;;10.60;99.90;;;;;;4946667;29;20031;-79
2023/04/18 00:56:34;;;;;;;13.77;10.80;;;10.60;99.90;;;;;;4948342;29;20488;-81
2023/04/18 00:59:00;;;;;;;16.30;11.30;;;10.60;99.90;;;;;;4930693;29;20027;-79
2023/04/18 01:01:26;;;;;;;15.93;10.57;;;10.60;99.90;;;;;;4948377;29;20083;-79
2023/04/18 01:03:51;;;;;;;13.82;10.20;;;10.60;99.90;;;;;;4948876;29;20036;-79
2023/04/18 01:06:17;;;;;;;15.50;10.40;;;10.60;99.90;;;;;;4948736;29;20032;-79
2023/04/18 01:08:44;;;;;;;15.32;10.48;;;10.60;99.90;;;;;;4948080;29;20035;-79
2023/04/18 01:11:10;;;;;;;12.80;10.23;;;10.60;99.90;;;;;;4929827;29;20024;-79
2023/04/18 01:13:35;;;;;;;14.15;10.20;;;10.60;99.90;;;;;;4929303;29;20027;-79
2023/04/18 01:16:01;;;;;;;18.50;10.48;;;10.60;99.90;;;;;;4947571;29;20495;-79
2023/04/18 01:18:30;;;;;;;12.52;8.70;;;10.60;99.90;;;;;;4947649;29;20107;-79
2023/04/18 01:20:58;;;;;;;13.38;10.00;;;10.60;99.90;;;;;;4946726;29;20024;-79
2023/04/18 01:23:24;;;;;;;14.00;10.23;;;10.60;99.90;;;;;;4946675;29;20039;-79
2023/04/18 01:25:50;;;;;;;12.88;10.13;;;10.60;99.90;;;;;;4946404;29;20024;-79
2023/04/18 01:28:18;;;;;;;15.75;10.27;;;10.60;99.90;;;;;;4926870;29;20167;-80
2023/04/18 01:30:44;;;;;;;14.02;10.90;;;10.60;99.90;;;;;;4945221;29;20035;-79
2023/04/18 01:33:09;;;;;;;17.52;12.07;;;10.60;99.90;;;;;;4929405;29;20480;-80
2023/04/18 01:35:35;;;;;;;13.98;10.13;;;10.60;99.90;;;;;;4929656;29;20095;-79
2023/04/18 01:38:01;;;;;;;14.73;10.52;;;10.50;99.90;;;;;;4929451;29;20040;-79
2023/04/18 01:40:27;;;;;;;14.02;10.00;;;10.50;99.90;;;;;;4946584;29;20035;-79
2023/04/18 01:42:52;;;;;;;13.82;9.98;;;10.50;99.90;;;;;;4929715;29;20028;-79
2023/04/18 01:45:19;;;;;;;18.15;11.27;;;10.50;99.90;;;;;;4947523;29;20091;-79
2023/04/18 01:47:45;;;;;;;12.77;9.60;;;10.50;99.90;;;;;;4946944;29;20039;-79
2023/04/18 01:50:11;;;;;;;14.82;10.80;;;10.50;99.90;;;;;;4946267;29;20024;-79
2023/04/18 01:52:37;;;;;;;17.73;11.23;;;10.50;99.90;;;;;;4929086;29;20034;-79
2023/04/18 01:55:04;;;;;;;14.43;10.85;;;10.50;99.90;;;;;;4930094;29;20027;-80
2023/04/18 01:57:31;;;;;;;25.45;11.63;;;10.50;99.90;;;;;;4947111;29;20086;-80
2023/04/18 01:59:56;;;;;;;17.00;12.20;;;10.50;99.90;;;;;;4946389;29;20048;-79
2023/04/18 02:02:22;;;;;;;17.67;10.32;;;10.50;99.90;;;;;;4946889;29;20110;-79
2023/04/18 02:04:47;;;;;;;17.45;11.13;;;10.50;99.90;;;;;;4929648;29;20124;-79
2023/04/18 02:07:13;;;;;;;15.25;11.30;;;10.50;99.90;;;;;;4928982;29;20087;-79
2023/04/18 02:09:38;;;;;;;13.77;10.88;;;10.50;99.90;;;;;;4946400;29;20030;-79
2023/04/18 02:12:04;;;;;;;12.68;10.02;;;10.50;99.90;;;;;;4947462;29;20040;-79
2023/04/18 02:14:32;;;;;;;14.05;10.00;;;10.50;99.90;;;;;;4946526;29;20040;-79
2023/04/18 02:16:58;;;;;;;14.88;9.90;;;10.50;99.90;;;;;;4929916;29;20055;-79
2023/04/18 02:19:24;;;;;;;13.80;10.65;;;10.50;99.90;;;;;;4946947;29;20035;-79
2023/04/18 02:21:50;;;;;;;13.07;10.30;;;10.50;99.90;;;;;;4946364;29;20024;-80
2023/04/18 02:24:16;;;;;;;15.88;10.73;;;10.50;99.90;;;;;;4947595;29;20031;-79
2023/04/18 02:26:42;;;;;;;16.67;9.38;;;10.50;99.90;;;;;;4948725;29;20035;-79
2023/04/18 02:29:08;;;;;;;12.73;9.93;;;10.50;99.90;;;;;;4945560;29;20038;-79
2023/04/18 02:31:35;;;;;;;13.60;8.93;;;10.50;99.90;;;;;;4945505;29;20031;-79
2023/04/18 02:34:01;;;;;;;11.35;8.30;;;10.50;99.90;;;;;;4946642;29;20492;-79
2023/04/18 02:36:27;;;;;;;12.20;8.90;;;10.50;99.90;;;;;;4929467;29;20036;-79
2023/04/18 02:38:53;;;;;;;9.80;8.20;;;10.50;99.90;;;;;;4946214;29;20027;-79
2023/04/18 02:41:19;;;;;;;11.15;8.75;;;10.50;99.90;;;;;;4929647;29;20031;-79
2023/04/18 02:43:45;;;;;;;11.52;8.35;;;10.40;99.90;;;;;;4929233;29;20035;-78
2023/04/18 02:46:11;;;;;;;11.57;8.55;;;10.50;99.90;;;;;;4946522;29;20388;-79
2023/04/18 02:48:36;;;;;;;11.50;8.27;;;10.50;99.90;;;;;;4944462;29;20079;-79
2023/04/18 02:51:03;;;;;;;10.95;8.07;;;10.50;99.90;;;;;;4945671;29;20028;-79
2023/04/18 02:53:29;;;;;;;12.70;8.43;;;10.50;99.90;;;;;;4945830;29;20027;-80
2023/04/18 02:55:54;;;;;;;11.18;8.02;;;10.50;99.90;;;;;;4946736;29;20032;-79
2023/04/18 02:58:20;;;;;;;13.35;8.20;;;10.50;99.90;;;;;;4945604;29;20032;-79
2023/04/18 03:00:46;;;;;;;9.70;7.10;;;10.50;99.90;;;;;;4946025;29;20048;-79
2023/04/18 03:03:11;;;;;;;10.10;7.47;;;10.50;99.90;;;;;;4946180;29;20027;-78
2023/04/18 03:05:38;;;;;;;9.98;7.40;;;10.50;99.90;;;;;;4946566;29;20098;-79
2023/04/18 03:08:04;;;;;;;10.25;7.10;;;10.50;99.90;;;;;;4928674;29;20035;-80
2023/04/18 03:10:30;;;;;;;9.82;6.85;;;10.50;99.90;;;;;;4946016;29;20476;-79
2023/04/18 03:12:56;;;;;;;12.63;7.00;;;10.50;99.90;;;;;;4929235;29;20028;-80
2023/04/18 03:15:21;;;;;;;7.95;6.35;;;10.50;99.90;;;;;;4948907;29;20404;-78
2023/04/18 03:17:49;;;;;;;9.50;7.05;;;10.50;99.90;;;;;;4932089;29;20036;-80
2023/04/18 03:20:15;;;;;;;8.15;6.63;;;10.50;99.90;;;;;;4932570;29;20059;-80
2023/04/18 03:22:40;;;;;;;10.25;6.57;;;10.50;99.90;;;;;;4933281;29;20110;-78
2023/04/18 03:25:06;;;;;;;8.70;6.72;;;10.50;99.90;;;;;;4931757;29;20035;-80
2023/04/18 03:27:32;;;;;;;9.00;6.60;;;10.50;99.90;;;;;;4948314;29;20028;-79
2023/04/18 03:29:58;;;;;;;8.52;6.55;;;10.50;99.90;;;;;;4949880;29;20110;-79
2023/04/18 03:32:23;;;;;;;8.85;6.50;;;10.50;99.90;;;;;;4932947;29;20479;-80
2023/04/18 03:34:50;;;;;;;9.45;7.00;;;10.50;99.90;;;;;;4949656;29;20087;-80
2023/04/18 03:37:16;;;;;;;9.02;6.50;;;10.50;99.90;;;;;;4949542;29;20036;-79
2023/04/18 03:39:41;;;;;;;9.88;7.03;;;10.50;99.90;;;;;;4932253;29;20048;-79
2023/04/18 03:42:07;;;;;;;9.07;6.03;;;10.50;99.90;;;;;;4947245;29;20035;-79
2023/04/18 03:44:33;;;;;;;9.77;6.85;;;10.50;99.90;;;;;;4947391;28;20495;-80
2023/04/18 03:46:59;;;;;;;8.90;6.22;;;10.50;99.90;;;;;;4933941;29;20036;-79
2023/04/18 03:49:24;;;;;;;7.30;5.78;;;10.50;99.90;;;;;;4952164;29;20052;-80
2023/04/18 03:51:50;;;;;;;7.10;6.00;;;10.50;99.90;;;;;;4951412;29;20495;-79
2023/04/18 03:54:16;;;;;;;8.65;6.45;;;10.50;99.90;;;;;;4947985;29;20475;-78
2023/04/18 03:56:42;;;;;;;10.75;6.70;;;10.50;99.90;;;;;;4946272;29;20035;-80
2023/04/18 03:59:08;;;;;;;8.45;5.78;;;10.40;99.90;;;;;;4945373;29;20032;-79
2023/04/18 04:01:34;;;;;;;7.65;6.20;;;10.50;99.90;;;;;;4947212;29;20055;-79
2023/04/18 04:04:01;;;;;;;11.23;5.90;;;;;;;;;;4948855;29;20035;-79
2023/04/18 04:06:27;;;;;;;9.25;6.00;;;10.50;99.90;;;;;;4932456;29;20114;-79
2023/04/18 04:08:53;;;;;;;10.23;5.97;;;10.50;99.90;;;;;;4948409;29;20027;-80
2023/04/18 04:11:18;;;;;;;8.48;6.20;;;10.50;99.90;;;;;;4949435;29;20020;-79
2023/04/18 04:13:44;;;;;;;7.45;5.95;;;10.50;99.90;;;;;;4947579;29;20036;-68
2023/04/18 04:16:10;;;;;;;11.45;5.88;;;10.50;99.90;;;;;;4947783;29;20020;-78
2023/04/18 04:18:36;;;;;;;7.68;5.72;;;10.50;99.90;;;;;;4928074;29;20043;-78
2023/04/18 04:21:04;;;;;;;7.85;5.45;;;10.50;99.90;;;;;;4944647;29;20460;-79
2023/04/18 04:23:30;;;;;;;7.57;5.55;;;10.50;99.90;;;;;;4947474;29;20038;-81
2023/04/18 04:25:57;;;;;;;6.15;5.05;;;10.50;99.90;;;;;;4927521;29;20427;-80
2023/04/18 04:28:25;;;;;;;6.20;4.78;;;10.50;99.90;;;;;;4946296;29;20066;-80
2023/04/18 04:30:51;;;;;;;7.45;5.63;;;10.50;99.90;;;;;;4942556;29;20024;-80
2023/04/18 04:33:20;;;;;;;6.00;4.80;;;10.50;99.90;;;;;;4945175;29;20043;-81
2023/04/18 04:35:46;;;;;;;7.60;4.90;;;10.50;99.90;;;;;;4946725;29;20046;-80
2023/04/18 04:38:15;;;;;;;7.75;5.20;;;10.50;99.90;;;;;;4947001;29;20069;-80
2023/04/18 04:40:41;;;;;;;6.68;4.70;;;10.60;99.90;;;;;;4947027;29;20032;-81
2023/04/18 04:43:11;;;;;;;7.10;5.53;;;10.50;99.90;;;;;;4944966;29;20031;-77
2023/04/18 04:45:40;;;;;;;5.80;4.15;;;10.50;99.90;;;;;;4947251;28;20028;-78
2023/04/18 04:48:09;;;;;;;6.80;4.40;;;10.50;99.90;;;;;;4946845;29;20035;-77
2023/04/18 04:50:40;;;;;;;5.40;4.30;;;10.50;99.90;;;;;;4946758;29;20042;-79
2023/04/18 04:53:06;;;;;;;10.45;5.38;;;10.50;99.90;;;;;;4934045;29;20095;-79
2023/04/18 04:55:32;;;;;;;8.18;5.03;;;10.50;99.90;;;;;;4952920;29;20032;-79
2023/04/18 04:57:58;;;;;;;7.30;4.85;;;10.50;99.90;;;;;;4950406;29;20115;-76
2023/04/18 05:00:24;;;;;;;10.27;5.28;;;10.50;99.90;;;;;;4949309;29;20055;-76
2023/04/18 05:02:54;;;;;;;9.55;5.43;;;10.50;99.90;;;;;;4947136;29;20024;-78
2023/04/18 05:05:20;;;;;;;7.57;5.38;;;10.50;99.90;;;;;;4947959;29;20038;-81
2023/04/18 05:07:46;;;;;;;6.38;4.88;;;10.50;99.90;;;;;;4947316;29;20087;-78
2023/04/18 05:10:11;;;;;;;6.88;5.22;;;10.50;99.90;;;;;;4947411;29;20039;-78
2023/04/18 05:12:37;;;;;;;7.57;5.28;;;10.50;99.90;;;;;;4946867;29;20028;-77
2023/04/18 05:15:03;;;;;;;10.40;6.10;;;10.50;99.90;;;;;;4929108;29;20103;-77
2023/04/18 05:17:28;;;;;;;6.75;4.28;;;10.50;99.90;;;;;;4943569;29;20432;-78
2023/04/18 05:19:54;;;;;;;5.35;4.38;;;10.50;99.90;;;;;;4943031;29;20027;-77
2023/04/18 05:22:20;;;;;;;3.97;3.45;;;10.50;99.90;;;;;;4944558;29;20035;-77
2023/04/18 05:24:45;;;;;;;6.53;4.38;;;10.50;99.90;;;;;;4946961;29;20038;-77
2023/04/18 05:27:13;;;;;;;4.68;3.83;;;10.50;99.90;;;;;;4946461;29;20079;-77
2023/04/18 05:29:38;;;;;;;6.25;4.45;;;10.50;99.90;;;;;;4946458;29;20032;-78
2023/04/18 05:32:06;;;;;;;4.25;3.65;;;10.50;99.90;;;;;;4926818;29;20042;-78
2023/04/18 05:34:34;;;;;;;4.32;3.65;;;10.50;99.90;;;;;;4926412;29;20075;-77
2023/04/18 05:37:00;;;;;;;5.22;4.03;;;10.50;99.90;;;;;;4926148;29;20036;-77
2023/04/18 05:39:26;;;;;;;5.10;3.30;;;10.50;99.90;;;;;;4944586;29;20032;-77
2023/04/18 05:41:52;;;;;;;4.80;3.58;;;10.50;99.90;;;;;;4945592;29;20030;-77
2023/04/18 05:44:18;;;;;;;5.13;3.97;;;10.50;99.90;;;;;;4928587;29;20535;-77
2023/04/18 05:46:44;;;;;;;4.53;3.85;;;10.50;99.90;;;;;;4928221;29;20035;-78
2023/04/18 05:49:10;;;;;;;5.38;3.75;;;10.50;99.90;;;;;;4944598;29;20041;-77
2023/04/18 05:51:36;;;;;;;5.45;3.22;;;10.50;99.90;;;;;;4926650;29;20372;-77
2023/04/18 05:54:02;;;;;;;4.18;3.22;;;10.50;99.90;;;;;;4941325;29;20528;-77
2023/04/18 05:56:28;;;;;;;4.72;3.55;;;10.50;99.90;;;;;;4944770;29;20036;-77
2023/04/18 05:58:53;;;;;;;3.47;3.17;;;10.50;99.90;;;;;;4946070;29;20050;-77
2023/04/18 06:01:20;;;;;;;6.32;3.08;;;10.50;99.90;;;;;;4929608;29;20502;-77
2023/04/18 06:03:46;;;;;;;5.55;3.30;;;10.50;99.90;;;;;;4944847;29;20031;-78
2023/04/18 06:06:11;;;;;;;3.28;2.90;;;10.50;99.90;;;;;;4927847;29;20028;-77
2023/04/18 06:08:38;;;;;;;3.00;2.75;;;10.60;99.90;;;;;;4945916;29;20036;-80
2023/04/18 06:11:04;;;;;;;4.93;3.30;;;10.50;99.90;;;;;;4928835;29;20038;-79
2023/04/18 06:13:30;;;;;;;3.78;2.60;;;10.60;99.90;;;;;;4943895;29;20130;-77
2023/04/18 06:15:56;;;;;;;3.97;3.20;;;10.60;99.90;;;;;;4929126;29;20028;-76
2023/04/18 06:18:21;;;;;;;5.35;2.90;;;10.60;99.90;;;;;;4927809;29;20099;-76
2023/04/18 06:20:47;;;;;;;3.10;2.80;;;10.60;99.90;;;;;;4943918;29;20038;-76
2023/04/18 06:23:19;;;;;;;3.35;2.70;;;10.60;99.90;;;;;;4941291;29;20055;-76
2023/04/18 06:25:45;;;;;;;2.72;2.25;;;10.70;99.90;;;;;;4942346;29;20035;-78
2023/04/18 06:28:10;;;;;;;2.90;2.70;;;10.70;99.90;;;;;;4942189;29;20069;-76
2023/04/18 06:30:36;;;;;;;3.35;2.50;;;10.70;99.90;;;;;;4941935;29;20032;-76
2023/04/18 06:33:02;;;;;;;3.55;2.60;;;10.70;99.90;;;;;;4943990;29;20111;-75
2023/04/18 06:35:30;;;;;;;2.30;2.10;;;10.80;99.90;;;;;;4926961;29;20478;-76
2023/04/18 06:37:56;;;;;;;7.13;2.45;;;10.80;99.90;;;;;;4927961;29;20107;-77
2023/04/18 06:40:22;;;;;;;2.13;1.67;;;10.80;99.90;;;;;;4943039;29;20075;-75
2023/04/18 06:42:47;;;;;;;2.97;2.42;;;10.80;99.90;;;;;;4943811;29;20055;-76
2023/04/18 06:45:13;;;;;;;3.95;2.28;;;10.90;99.90;;;;;;4943780;29;20039;-76
2023/04/18 06:47:39;;;;;;;3.90;2.30;;;10.90;99.90;;;;;;4942892;29;20464;-76
2023/04/18 06:50:07;;;;;;;3.75;1.85;;;10.90;99.90;;;;;;4941462;29;20030;-76
2023/04/18 06:52:32;;;;;;;2.17;1.95;;;10.90;99.90;;;;;;4944994;29;20038;-76
2023/04/18 06:54:58;;;;;;;2.90;1.85;;;11.00;99.90;;;;;;4944300;29;20055;-76
2023/04/18 06:57:24;;;;;;;1.83;1.73;;;11.00;99.90;;;;;;4925563;29;20048;-77
2023/04/18 06:59:50;;;;;;;2.17;1.90;;;11.00;99.90;;;;;;4940810;29;20051;-76
2023/04/18 07:02:16;;;;;;;2.42;2.15;;;11.00;99.90;;;;;;4922749;29;20038;-76
2023/04/18 07:04:41;;;;;;;2.08;1.45;;;11.00;99.90;;;;;;4938581;29;20024;-76
2023/04/18 07:07:07;;;;;;;4.28;1.75;;;11.00;99.90;;;;;;4938803;29;20024;-76
2023/04/18 07:09:33;;;;;;;2.95;1.77;;;11.00;99.90;;;;;;4923800;29;20032;-76
2023/04/18 07:11:59;;;;;;;2.58;2.10;;;11.00;99.90;;;;;;4939175;29;20392;-76
2023/04/18 07:14:25;;;;;;;4.60;1.50;;;11.00;99.90;;;;;;4937657;29;20032;-76
2023/04/18 07:16:50;;;;;;;1.77;1.45;;;11.00;99.90;;;;;;4920009;29;20040;-76
2023/04/18 07:19:16;;;;;;;2.13;1.48;;;11.00;99.90;;;;;;4940541;29;20034;-75
2023/04/18 07:21:44;;;;;;;2.33;1.58;;;11.00;99.90;;;;;;4941107;29;20062;-76
2023/04/18 07:24:10;;;;;;;2.70;1.27;;;11.00;99.90;;;;;;4938580;29;20062;-76
2023/04/18 07:26:37;;;;;;;1.92;1.48;;;11.00;99.90;;;;;;4938928;29;20420;-76
2023/04/18 07:29:03;;;;;;;1.33;1.23;;;11.00;99.90;;;;;;4921646;29;20034;-76
2023/04/18 07:31:30;;;;;;;3.50;2.15;;;11.00;99.90;;;;;;4922128;29;20031;-76
2023/04/18 07:33:56;;;;;;;5.38;2.45;;;11.00;99.90;;;;;;4942902;29;20020;-77
2023/04/18 07:36:22;;;;;;;2.90;1.90;;;11.00;99.90;;;;;;4942959;29;20032;-77
2023/04/18 07:38:47;;;;;;;2.75;1.95;;;10.90;99.90;;;;;;4923108;29;20054;-76
2023/04/18 07:41:13;;;;;;;5.13;1.65;;;11.00;99.90;;;;;;4941283;29;20046;-77
2023/04/18 07:43:39;;;;;;;1.73;1.63;;;11.00;99.90;;;;;;4940167;29;20110;-77
2023/04/18 07:46:08;;;;;;;2.15;2.05;;;11.00;99.90;;;;;;4940249;29;20460;-75
2023/04/18 07:48:33;;;;;;;7.70;3.85;;;11.00;99.90;;;;;;4940449;29;20023;-76
2023/04/18 07:50:59;;;;;;;2.30;2.10;;;11.00;99.90;;;;;;4938498;29;20111;-76
2023/04/18 07:53:25;;;;;;;3.35;2.70;;;11.10;99.90;;;;;;4938751;29;20035;-76
2023/04/18 07:55:50;;;;;;;3.90;2.50;;;11.10;99.90;;;;;;4937997;29;20024;-76
2023/04/18 07:58:16;;;;;;;4.75;2.65;;;11.10;99.90;;;;;;4919894;29;20167;-76
2023/04/18 08:00:43;;;;;;;5.00;2.42;;;11.20;99.90;;;;;;4938551;29;20126;-75
2023/04/18 08:03:10;;;;;;;4.78;2.72;;;11.20;99.90;;;;;;4941426;29;20087;-75
2023/04/18 08:05:38;;;;;;;5.35;3.17;;;11.20;99.90;;;;;;4942253;29;20157;-76
2023/04/18 08:08:05;;;;;;;2.60;2.40;;;11.20;99.90;;;;;;4925299;29;20067;-75
2023/04/18 08:10:31;;;;;;;4.88;3.00;;;11.20;99.90;;;;;;4941945;29;20024;-76
2023/04/18 08:12:57;;;;;;;4.00;2.95;;;11.20;99.90;;;;;;4942611;29;20024;-75
2023/04/18 08:15:23;;;;;;;3.45;2.80;;;11.20;99.90;;;;;;4923943;29;20028;-77
2023/04/18 08:17:48;;;;;;;3.85;2.80;;;11.20;99.90;;;;;;4942176;29;20047;-75
2023/04/18 08:20:14;;;;;;;2.58;2.38;;;11.20;99.90;;;;;;4924762;29;20068;-75
2023/04/18 08:22:40;;;;;;;6.95;2.88;;;11.30;99.90;;;;;;4940871;29;20035;-76
2023/04/18 08:25:06;;;;;;;8.52;2.67;;;11.30;99.90;;;;;;4925038;29;20095;-76
2023/04/18 08:27:32;;;;;;;4.68;3.10;;;11.30;99.90;;;;;;4925940;29;20079;-76
2023/04/18 08:29:58;;;;;;;6.57;2.90;;;11.30;99.90;;;;;;4941168;29;20028;-77
2023/04/18 08:32:24;;;;;;;5.32;2.72;;;11.30;99.90;;;;;;4939787;29;20408;-76
2023/04/18 08:34:50;;;;;;;3.60;2.72;;;11.40;99.90;;;;;;4922627;29;20119;-77
2023/04/18 08:37:16;;;;;;;5.20;2.92;;;11.40;99.90;;;;;;4940492;29;20110;-76
2023/04/18 08:39:42;;;;;;;4.15;2.75;;;11.40;99.90;;;;;;4939662;29;20075;-76
2023/04/18 08:42:10;;;;;;;5.80;2.97;;;11.40;99.90;;;;;;4939985;29;20067;-75
2023/04/18 08:44:36;;;;;;;4.60;2.97;;;11.40;99.90;;;;;;4939557;29;20024;-77
2023/04/18 08:47:02;;;;;;;3.40;2.70;;;11.50;99.90;;;;;;4939508;29;20043;-76
2023/04/18 08:49:30;;;;;;;4.28;3.58;;;11.50;99.90;;;;;;4938957;29;20486;-75
2023/04/18 08:51:59;;;;;;;7.00;3.80;;;11.50;99.90;;;;;;4939771;29;20376;-76
2023/04/18 08:54:29;;;;;;;5.45;3.25;;;11.50;99.90;;;;;;4939588;29;20115;-75
2023/04/18 08:57:09;;;;;;;9.25;3.35;;;11.50;99.90;;;;;;4922835;29;20044;-76
2023/04/18 08:59:35;;;;;;;4.10;3.70;;;11.60;99.90;;;;;;4940643;29;20031;-75
2023/04/18 09:02:02;;;;;;;4.53;3.75;;;11.60;99.90;;;;;;4939782;29;20380;-76
2023/04/18 09:04:35;;;;;;;7.72;4.28;;;11.70;99.90;;;;;;4922706;29;20528;-76
2023/04/18 09:07:02;;;;;;;6.57;3.65;;;11.70;99.90;;;;;;4941281;29;20074;-75
2023/04/18 09:09:39;;;;;;;5.47;4.13;;;11.70;99.90;;;;;;4940112;29;20036;-76
2023/04/18 09:12:13;;;;;;;4.63;3.33;;;11.70;99.90;;;;;;4937989;29;20591;-75
2023/04/18 09:14:44;;;;;;;4.95;3.60;;;11.80;99.90;;;;;;4921193;29;20429;-75
2023/04/18 09:17:30;;;;;;;5.68;3.42;;;11.80;99.90;;;;;;4937246;29;20044;-76
2023/04/18 09:19:57;;;;;;;6.95;3.97;;;11.90;99.90;;;;;;4937249;29;20044;-76
2023/04/18 09:22:23;;;;;;;6.05;3.85;;;12.00;99.90;;;;;;4920967;29;20118;-76
2023/04/18 09:24:56;;;;;;;7.45;3.80;;;12.10;99.90;;;;;;4920813;29;20568;-75
2023/04/18 09:27:22;;;;;;;4.82;4.35;;;12.10;99.90;;;;;;4938036;29;20036;-76
2023/04/18 09:29:50;;;;;;;7.07;4.18;;;12.10;99.90;;;;;;4922359;29;20079;-75
2023/04/18 09:32:24;;;;;;;5.40;4.20;;;12.10;99.90;;;;;;4938948;29;20027;-76
2023/04/18 09:34:56;;;;;;;6.05;4.55;;;12.10;99.90;;;;;;4920664;29;20027;-76
2023/04/18 09:37:24;;;;;;;7.00;4.57;;;12.10;99.90;;;;;;4920776;29;20036;-75
2023/04/18 09:39:50;;;;;;;7.38;4.22;;;12.10;99.90;;;;;;4937600;29;20047;-76
2023/04/18 09:42:16;;;;;;;9.30;4.63;;;12.20;99.90;;;;;;4937539;29;20451;-76
2023/04/18 09:45:02;;;;;;;4.78;4.38;;;12.40;99.90;;;;;;4937413;29;20032;-75
2023/04/18 09:47:28;;;;;;;7.35;5.07;;;12.50;99.90;;;;;;4937432;29;20450;-76
2023/04/18 09:49:54;;;;;;;4.80;4.30;;;12.70;99.90;;;;;;4937288;29;20028;-75
2023/04/18 09:52:23;;;;;;;60.92;10.75;;;12.80;99.90;;;;;;4937329;29;20031;-82
2023/04/18 09:54:57;;;;;;;5.88;4.72;;;13.00;99.90;;;;;;4920121;29;20091;-75
2023/04/18 09:57:26;;;;;;;6.13;5.03;;;13.20;99.90;;;;;;4920311;29;20051;-75
2023/04/18 09:59:58;;;;;;;5.47;4.30;;;13.40;99.90;;;;;;4937432;29;20066;-75
2023/04/18 10:02:26;;;;;;;5.45;4.68;;;13.50;99.90;;;;;;4937677;29;20038;-75
2023/04/18 10:04:54;;;;;;;6.88;5.00;;;13.40;99.90;;;;;;4935900;29;20038;-75
2023/04/18 10:07:20;;;;;;;8.45;5.65;;;13.30;99.90;;;;;;4938211;29;20069;-75
2023/04/18 10:09:47;;;;;;;8.02;5.68;;;12.90;99.90;;;;;;4921118;29;20032;-75
2023/04/18 10:12:15;;;;;;;6.68;5.20;;;12.80;99.90;;;;;;4937620;29;20027;-75
2023/04/18 10:14:42;;;;;;;7.45;5.18;;;12.70;99.90;;;;;;4920356;29;20391;-75
2023/04/18 10:17:12;;;;;;;10.35;5.32;;;12.60;99.90;;;;;;4937140;29;20455;-75
2023/04/18 10:19:40;;;;;;;7.25;5.55;;;12.50;99.90;;;;;;4920241;29;20032;-76
2023/04/18 10:22:06;;;;;;;6.57;5.43;;;12.50;99.90;;;;;;4920415;29;20036;-76
2023/04/18 10:24:48;;;;;;;7.43;5.78;;;12.30;99.90;;;;;;4920932;29;20035;-75
2023/04/18 10:27:17;;;;;;;8.52;5.60;;;12.30;99.90;;;;;;4936828;29;20032;-76
2023/04/18 10:29:47;;;;;;;;;;;12.40;99.90;;;;;;4937338;29;20068;-75
2023/04/18 10:32:13;;;;;;;6.47;5.80;;;12.50;99.90;;;;;;4936737;29;19906;-75
2023/04/18 10:34:39;;;;;;;8.05;5.80;;;12.50;99.90;;;;;;4936993;29;20055;-76
2023/04/18 10:37:05;;;;;;;9.05;6.07;;;12.70;99.90;;;;;;4936685;29;20135;-76
2023/04/18 10:39:55;;;;;;;9.00;6.10;;;12.70;99.90;;;;;;4919902;29;20028;-75
2023/04/18 10:42:46;;;;;;;8.43;5.55;;;12.70;99.90;;;;;;4936830;29;20388;-76
2023/04/18 10:45:22;;;;;;;6.35;5.72;;;12.90;99.90;;;;;;4936243;29;20483;-76
2023/04/18 10:47:48;;;;;;;7.70;5.50;;;13.30;99.90;;;;;;4931173;29;20757;-76
2023/04/18 10:50:14;;;;;;;7.97;5.43;;;13.50;99.90;;;;;;4925991;29;20040;-75
2023/04/18 10:52:41;;;;;;;11.57;5.47;;;13.80;99.90;;;;;;4925602;29;20036;-75
2023/04/18 10:55:12;;;;;;;6.38;5.30;;;14.00;99.90;;;;;;4908262;29;20484;-75
2023/04/18 10:57:47;;;;;;;8.98;5.32;;;14.10;99.90;;;;;;4925419;29;20048;-75
2023/04/18 11:00:16;;;;;;;6.57;5.97;;;14.20;99.90;;;;;;4908538;29;20155;-75
2023/04/18 11:02:54;;;;;;;6.75;6.00;;;14.20;99.90;;;;;;4925657;29;20031;-75
2023/04/18 11:05:27;;;;;;;6.60;5.60;;;14.50;99.90;;;;;;4926043;29;20043;-75
2023/04/18 11:07:53;;;;;;;6.68;5.18;;;14.60;99.90;;;;;;4908224;29;20032;-75
2023/04/18 11:10:25;;;;;;;9.25;4.95;;;14.60;99.90;;;;;;4925262;29;20062;-75
2023/04/18 11:12:52;;;;;;;5.32;4.82;;;14.40;99.90;;;;;;4908107;29;20046;-75
2023/04/18 11:15:22;;;;;;;8.77;5.10;;;14.20;99.90;;;;;;4908222;29;20039;-75
2023/04/18 11:18:00;;;;;;;10.15;6.18;;;13.70;99.90;;;;;;4923698;29;20044;-75
2023/04/18 11:20:25;;;;;;;6.97;4.97;;;13.40;99.90;;;;;;4908975;29;20036;-75
2023/04/18 11:22:56;;;;;;;8.07;5.70;;;13.10;99.90;;;;;;4926398;29;20614;-75
2023/04/18 11:25:28;;;;;;;9.55;5.53;;;13.00;99.90;;;;;;4925281;29;20036;-75
2023/04/18 11:27:56;;;;;;;7.03;5.20;;;13.10;99.90;;;;;;4925017;29;20366;-75
2023/04/18 11:30:22;;;;;;;9.80;5.40;;;13.10;99.90;;;;;;4925203;29;20043;-75
2023/04/18 11:32:48;;;;;;;6.05;4.75;;;13.10;99.90;;;;;;4929897;29;20032;-75
2023/04/18 11:35:14;;;;;;;5.70;5.07;;;13.20;99.90;;;;;;4936273;29;20031;-75
2023/04/18 11:37:41;;;;;;;6.53;5.80;;;13.10;99.90;;;;;;4922946;29;20035;-75
2023/04/18 11:40:11;;;;;;;6.57;5.25;;;13.00;99.90;;;;;;4939831;29;20028;-75
2023/04/18 11:42:39;;;;;;;7.65;5.13;;;13.10;99.90;;;;;;4939824;29;20028;-75
2023/04/18 11:45:12;;;;;;;8.18;5.95;;;13.40;99.90;;;;;;4938466;29;20152;-76
2023/04/18 11:47:38;;;;;;;7.55;5.25;;;13.70;99.90;;;;;;4923248;29;20086;-75
2023/04/18 11:50:06;;;;;;;7.00;5.47;;;14.10;99.90;;;;;;4938193;29;20384;-75
2023/04/18 11:52:33;;;;;;;6.43;5.20;;;14.40;99.90;;;;;;4939506;29;20067;-75
2023/04/18 11:55:12;;;;;;;6.07;5.28;;;14.50;99.90;;;;;;4939272;29;20424;-75
2023/04/18 11:57:38;;;;;;;6.88;5.18;;;14.50;99.90;;;;;;4922621;29;20036;-75
2023/04/18 12:00:08;;;;;;;5.03;4.55;;;14.20;99.90;;;;;;4939465;29;20158;-74
2023/04/18 12:02:44;;;;;;;5.80;5.20;;;14.20;99.90;;;;;;4939522;29;20454;-75
2023/04/18 12:05:13;;;;;;;6.53;5.00;;;14.20;99.90;;;;;;4939635;29;20120;-75
2023/04/18 12:07:44;;;;;;;10.88;5.88;;;14.10;99.90;;;;;;4939275;29;20035;-75
2023/04/18 12:10:18;;;;;;;6.55;5.05;;;14.00;99.90;;;;;;4922160;29;20119;-75
2023/04/18 12:12:47;;;;;;;5.45;4.95;;;14.00;99.90;;;;;;4939174;29;20024;-75
2023/04/18 12:15:15;;;;;;;7.82;5.43;;;14.20;99.90;;;;;;4939607;29;20451;-75
2023/04/18 12:17:43;;;;;;;5.85;5.00;;;14.50;99.90;;;;;;4939129;29;20411;-75
2023/04/18 12:20:10;;;;;;;7.22;5.15;;;14.60;99.90;;;;;;4939254;29;20031;-76
2023/04/18 12:22:50;;;;;;;9.43;5.60;;;14.50;99.90;;;;;;4939083;29;20511;-75
2023/04/18 12:25:21;;;;;;;6.88;5.30;;;14.30;99.90;;;;;;4939218;29;20035;-75
2023/04/18 12:27:54;;;;;;;6.20;4.80;;;13.90;99.90;;;;;;4940676;29;20031;-63
2023/04/18 12:30:33;;;;;;;6.32;4.75;;;13.60;99.90;;;;;;4939061;29;20027;-75
2023/04/18 12:33:00;;;;;;;;;;;13.60;99.90;;;;;;4941196;29;20086;-75
2023/04/18 12:35:26;;;;;;;5.53;4.35;;;13.70;99.90;;;;;;4938938;29;19906;-74
2023/04/18 12:37:54;;;;;;;6.22;4.13;;;14.40;99.90;;;;;;4938695;29;20043;-75
2023/04/18 12:40:21;;;;;;;4.82;3.72;;;14.90;99.90;;;;;;4938530;29;20032;-75
2023/04/18 12:42:49;;;;;;;4.57;4.10;;;15.50;99.90;;;;;;4921674;29;20448;-74